createdAt,value
2022-12-15T00:00:24.284Z,5.82
2022-12-15T00:03:10.932Z,3.90
2022-12-15T00:05:57.211Z,3.75
2022-12-15T00:08:43.749Z,3.20
2022-12-15T00:11:30.171Z,4.07
2022-12-15T00:14:16.469Z,3.58
2022-12-15T00:17:03.223Z,2.70
2022-12-15T00:19:50.552Z,1.98
2022-12-15T00:22:37.000Z,2.13
2022-12-15T00:25:23.402Z,8.23
2022-12-15T00:28:09.748Z,3.30
2022-12-15T00:31:01.899Z,3.17
2022-12-15T00:33:48.615Z,3.08
2022-12-15T00:36:35.354Z,5.05
2022-12-15T00:39:04.044Z,1.48
2022-12-15T00:41:32.122Z,2.35
2022-12-15T00:43:59.927Z,2.85
2022-12-15T00:46:46.248Z,2.60
2022-12-15T00:49:32.423Z,1.85
2022-12-15T00:52:18.806Z,5.57
2022-12-15T00:55:05.170Z,3.05
2022-12-15T00:57:51.564Z,5.68
2022-12-15T01:00:37.800Z,2.45
2022-12-15T01:03:31.443Z,2.67
2022-12-15T01:06:18.019Z,2.55
2022-12-15T01:09:04.339Z,2.15
2022-12-15T01:11:50.754Z,3.05
2022-12-15T01:14:37.332Z,1.85
2022-12-15T01:17:24.272Z,3.05
2022-12-15T01:20:10.979Z,4.68
2022-12-15T01:22:39.060Z,3.28
2022-12-15T01:25:07.541Z,2.28
2022-12-15T01:27:35.300Z,7.63
2022-12-15T01:30:03.301Z,2.85
2022-12-15T01:32:31.175Z,4.53
2022-12-15T01:34:58.924Z,2.72
2022-12-15T01:37:26.818Z,2.78
2022-12-15T01:40:12.981Z,3.25
2022-12-15T01:42:40.894Z,2.50
2022-12-15T01:45:24.705Z,1.20
2022-12-15T01:48:03.864Z,3.75
2022-12-15T01:50:33.635Z,2.75
2022-12-15T01:53:01.405Z,1.63
2022-12-15T01:55:29.776Z,7.25
2022-12-15T01:58:02.918Z,2.13
2022-12-15T02:00:31.693Z,2.80
2022-12-15T02:03:00.265Z,1.73
2022-12-15T02:05:30.707Z,1.23
2022-12-15T02:07:59.140Z,1.65
2022-12-15T02:10:31.484Z,2.78
2022-12-15T02:13:02.248Z,1.95
2022-12-15T02:15:33.357Z,1.42
2022-12-15T02:18:07.167Z,4.32
2022-12-15T02:20:57.149Z,2.50
2022-12-15T02:23:37.005Z,2.08
2022-12-15T02:26:25.444Z,4.50
2022-12-15T02:29:38.912Z,3.03
2022-12-15T02:32:17.263Z,3.35
2022-12-15T02:34:45.148Z,2.40
2022-12-15T02:37:22.681Z,2.65
2022-12-15T02:39:50.507Z,1.90
2022-12-15T02:42:18.220Z,2.28
2022-12-15T02:44:54.458Z,2.72
2022-12-15T02:47:27.278Z,1.70
2022-12-15T02:50:13.461Z,1.58
2022-12-15T02:53:03.285Z,2.40
2022-12-15T02:55:50.329Z,2.60
2022-12-15T02:58:18.173Z,1.70
2022-12-15T03:00:54.741Z,2.17
2022-12-15T03:03:23.017Z,1.63
2022-12-15T03:05:55.160Z,3.05
2022-12-15T03:08:23.249Z,2.38
2022-12-15T03:10:52.339Z,4.97
2022-12-15T03:13:20.518Z,2.10
2022-12-15T03:15:48.342Z,3.90
2022-12-15T03:18:16.651Z,2.53
2022-12-15T03:20:44.428Z,2.88
2022-12-15T03:23:12.246Z,3.10
2022-12-15T03:25:40.433Z,2.67
2022-12-15T03:28:08.318Z,2.85
2022-12-15T03:30:36.113Z,4.78
2022-12-15T03:33:03.961Z,3.55
2022-12-15T03:35:33.520Z,2.80
2022-12-15T03:38:01.271Z,1.58
2022-12-15T03:40:29.431Z,2.90
2022-12-15T03:42:58.178Z,3.33
2022-12-15T03:45:27.638Z,1.90
2022-12-15T03:47:56.183Z,4.50
2022-12-15T03:50:26.581Z,2.78
2022-12-15T03:53:02.373Z,7.90
2022-12-15T03:55:30.303Z,4.60
2022-12-15T03:57:59.410Z,2.15
2022-12-15T04:00:27.290Z,5.68
2022-12-15T04:02:55.331Z,2.25
2022-12-15T04:05:26.389Z,2.17
2022-12-15T04:07:54.495Z,2.55
2022-12-15T04:10:22.359Z,3.20
2022-12-15T04:12:50.115Z,1.80
2022-12-15T04:15:17.954Z,2.08
2022-12-15T04:17:46.460Z,5.40
2022-12-15T04:20:14.312Z,3.83
2022-12-15T04:22:47.103Z,2.83
2022-12-15T04:25:35.263Z,1.98
2022-12-15T04:28:21.639Z,6.85
2022-12-15T04:31:11.995Z,2.55
2022-12-15T04:34:01.407Z,6.43
2022-12-15T04:36:48.091Z,5.75
2022-12-15T04:39:34.238Z,5.20
2022-12-15T04:42:21.125Z,6.88
2022-12-15T04:45:12.243Z,12.65
2022-12-15T04:48:02.053Z,6.38
2022-12-15T04:50:48.318Z,7.15
2022-12-15T04:53:37.259Z,5.57
2022-12-15T04:56:23.994Z,1.92
2022-12-15T04:59:10.074Z,2.60
2022-12-15T05:01:56.668Z,3.47
2022-12-15T05:04:43.013Z,5.57
2022-12-15T05:07:29.195Z,10.55
2022-12-15T05:10:15.568Z,8.63
2022-12-15T05:13:02.173Z,5.68
2022-12-15T05:15:49.307Z,5.43
2022-12-15T05:18:35.991Z,5.45
2022-12-15T05:21:22.238Z,11.32
2022-12-15T05:24:08.311Z,5.47
2022-12-15T05:26:54.601Z,11.68
2022-12-15T05:29:40.934Z,9.20
2022-12-15T05:32:09.381Z,16.95
2022-12-15T05:34:38.345Z,9.18
2022-12-15T05:37:07.647Z,7.68
2022-12-15T05:39:35.674Z,8.48
2022-12-15T05:42:03.615Z,8.32
2022-12-15T05:44:31.762Z,10.77
2022-12-15T05:46:59.687Z,22.77
2022-12-15T05:49:27.672Z,17.63
2022-12-15T05:51:55.469Z,10.23
2022-12-15T05:54:23.326Z,25.95
2022-12-15T05:56:51.171Z,48.85
2022-12-15T05:59:22.010Z,12.38
2022-12-15T06:01:49.866Z,9.95
2022-12-15T06:04:17.989Z,29.67
2022-12-15T06:06:46.012Z,6.20
2022-12-15T06:09:13.807Z,16.15
2022-12-15T06:11:41.575Z,15.82
2022-12-15T06:14:09.806Z,24.50
2022-12-15T06:16:44.280Z,23.52
2022-12-15T06:19:20.406Z,31.85
2022-12-15T06:21:48.178Z,21.38
2022-12-15T06:24:16.112Z,12.27
2022-12-15T06:26:44.090Z,25.30
2022-12-15T06:29:13.504Z,20.98
2022-12-15T06:31:41.887Z,38.63
2022-12-15T06:34:12.939Z,29.95
2022-12-15T06:36:40.767Z,14.38
2022-12-15T06:39:09.665Z,37.72
2022-12-15T06:41:37.761Z,28.73
2022-12-15T06:44:05.982Z,36.03
2022-12-15T06:46:35.336Z,51.40
2022-12-15T06:49:03.154Z,40.67
2022-12-15T06:51:31.051Z,17.35
2022-12-15T06:53:58.941Z,42.15
2022-12-15T06:56:36.307Z,27.42
2022-12-15T06:59:06.048Z,28.15
2022-12-15T07:01:34.253Z,68.45
2022-12-15T07:04:03.371Z,39.40
2022-12-15T07:06:34.299Z,37.78
2022-12-15T07:09:02.157Z,24.83
2022-12-15T07:11:29.921Z,29.33
2022-12-15T07:13:57.731Z,54.72
2022-12-15T07:16:27.015Z,21.65
2022-12-15T07:18:55.405Z,24.38
2022-12-15T07:21:23.593Z,33.33
2022-12-15T07:23:56.439Z,36.88
2022-12-15T07:26:24.707Z,48.08
2022-12-15T07:28:53.813Z,27.13
2022-12-15T07:31:21.948Z,71.07
2022-12-15T07:33:52.415Z,33.90
2022-12-15T07:36:20.511Z,34.92
2022-12-15T07:38:50.888Z,46.03
2022-12-15T07:41:19.584Z,27.88
2022-12-15T07:43:48.214Z,24.17
2022-12-15T07:46:16.344Z,82.53
2022-12-15T07:48:44.279Z,36.25
2022-12-15T07:51:20.152Z,43.05
2022-12-15T07:53:50.123Z,54.55
2022-12-15T07:56:18.632Z,52.05
2022-12-15T07:58:46.292Z,52.22
2022-12-15T08:01:16.504Z,80.47
2022-12-15T08:03:45.498Z,109.43
2022-12-15T08:06:14.444Z,65.93
2022-12-15T08:08:42.747Z,18.63
2022-12-15T08:11:12.441Z,50.35
2022-12-15T08:16:29.172Z,53.25
2022-12-15T08:19:00.210Z,56.45
2022-12-15T08:21:28.157Z,57.53
2022-12-15T08:23:57.830Z,58.75
2022-12-15T08:26:30.274Z,88.30
2022-12-15T08:29:17.248Z,59.20
2022-12-15T08:31:47.077Z,79.43
2022-12-15T08:34:15.075Z,94.68
2022-12-15T08:36:43.154Z,68.70
2022-12-15T08:39:11.070Z,89.95
2022-12-15T08:41:39.047Z,67.22
2022-12-15T08:44:07.073Z,92.88
2022-12-15T08:46:35.445Z,77.07
2022-12-15T08:49:04.198Z,62.80
2022-12-15T08:51:32.674Z,69.32
2022-12-15T08:54:00.994Z,71.82
2022-12-15T08:56:29.467Z,59.72
2022-12-15T08:59:17.157Z,45.70
2022-12-15T09:02:02.182Z,95.00
2022-12-15T09:04:44.399Z,47.15
2022-12-15T09:07:23.263Z,40.13
2022-12-15T09:10:05.576Z,40.80
2022-12-15T09:12:47.292Z,47.53
2022-12-15T09:15:26.119Z,41.75
2022-12-15T09:18:02.843Z,41.55
2022-12-15T09:20:30.574Z,44.90
2022-12-15T09:22:59.264Z,39.15
2022-12-15T09:25:27.133Z,50.65
2022-12-15T09:27:55.175Z,63.05
2022-12-15T09:30:23.254Z,51.00
2022-12-15T09:32:51.567Z,59.33
2022-12-15T09:35:20.841Z,55.25
2022-12-15T09:37:51.958Z,81.13
2022-12-15T09:40:25.716Z,40.55
2022-12-15T09:43:25.659Z,54.22
2022-12-15T09:45:51.101Z,38.45
2022-12-15T09:48:21.203Z,42.85
2022-12-15T09:50:52.961Z,54.80
2022-12-15T09:53:53.626Z,67.43
2022-12-15T09:56:24.797Z,35.58
2022-12-15T09:59:09.238Z,45.13
2022-12-15T10:02:00.867Z,39.95
2022-12-15T10:04:28.819Z,62.20
2022-12-15T10:07:15.303Z,66.30
2022-12-15T10:09:43.255Z,32.88
2022-12-15T10:12:53.202Z,38.25
2022-12-15T10:15:35.653Z,29.45
2022-12-15T10:18:12.256Z,22.52
2022-12-15T10:20:40.299Z,44.22
2022-12-15T10:23:17.402Z,34.42
2022-12-15T10:25:57.245Z,30.00
2022-12-15T10:28:51.249Z,44.03
2022-12-15T10:31:37.334Z,42.78
2022-12-15T10:34:25.132Z,44.90
2022-12-15T10:36:54.505Z,29.33
2022-12-15T10:39:22.855Z,46.15
2022-12-15T10:42:12.953Z,37.63
2022-12-15T10:44:44.650Z,40.85
2022-12-15T10:47:21.147Z,47.40
2022-12-15T10:49:49.297Z,63.70
2022-12-15T10:52:49.048Z,36.92
2022-12-15T10:55:41.757Z,78.38
2022-12-15T10:58:17.597Z,38.53
2022-12-15T11:00:46.558Z,66.57
2022-12-15T11:03:27.658Z,64.95
2022-12-15T11:05:58.698Z,47.63
2022-12-15T11:08:28.877Z,48.05
2022-12-15T11:11:18.171Z,44.13
2022-12-15T11:14:05.923Z,42.15
2022-12-15T11:16:35.826Z,37.92
2022-12-15T11:19:12.313Z,29.02
2022-12-15T11:24:21.955Z,34.45
2022-12-15T11:26:51.789Z,46.45
2022-12-15T11:29:20.830Z,46.35
2022-12-15T11:31:51.207Z,29.30
2022-12-15T11:34:26.894Z,42.42
2022-12-15T11:37:10.447Z,56.25
2022-12-15T11:39:59.387Z,25.45
2022-12-15T11:42:46.916Z,40.88
2022-12-15T11:46:00.102Z,43.47
2022-12-15T11:48:44.960Z,20.52
2022-12-15T11:51:42.487Z,39.35
2022-12-15T11:54:15.907Z,41.38
2022-12-15T11:57:00.836Z,50.42
2022-12-15T11:59:28.803Z,39.75
2022-12-15T12:02:21.564Z,45.55
2022-12-15T12:05:22.789Z,50.03
2022-12-15T12:08:03.899Z,59.03
2022-12-15T12:10:47.828Z,52.42
2022-12-15T12:13:46.627Z,39.22
2022-12-15T12:16:47.585Z,75.32
2022-12-15T12:19:18.258Z,54.20
2022-12-15T12:21:51.283Z,67.40
2022-12-15T12:24:24.982Z,48.92
2022-12-15T12:26:53.172Z,58.78
2022-12-15T12:29:34.726Z,79.60
2022-12-15T12:32:05.224Z,54.95
2022-12-15T12:35:31.405Z,61.65
2022-12-15T12:38:04.061Z,49.00
2022-12-15T12:40:40.844Z,88.10
2022-12-15T12:46:18.303Z,54.40
2022-12-15T12:48:50.876Z,53.53
2022-12-15T12:51:26.533Z,58.85
2022-12-15T12:53:55.380Z,32.33
2022-12-15T12:56:36.464Z,41.78
2022-12-15T12:59:25.973Z,47.33
2022-12-15T13:01:55.799Z,62.90
2022-12-15T13:04:30.237Z,51.70
2022-12-15T13:06:58.257Z,38.17
2022-12-15T13:09:38.357Z,29.17
2022-12-15T13:12:27.603Z,57.22
2022-12-15T13:14:55.904Z,54.05
2022-12-15T13:17:31.796Z,48.13
2022-12-15T13:19:59.777Z,24.27
2022-12-15T13:22:40.201Z,65.70
2022-12-15T13:25:32.789Z,81.35
2022-12-15T13:28:03.089Z,35.97
2022-12-15T13:30:31.049Z,32.00
2022-12-15T13:33:19.394Z,63.47
2022-12-15T13:35:47.435Z,21.08
2022-12-15T13:38:20.112Z,54.25
2022-12-15T13:40:57.335Z,52.70
2022-12-15T13:43:28.481Z,57.63
2022-12-15T13:45:57.723Z,44.97
2022-12-15T13:49:02.201Z,68.68
2022-12-15T13:51:39.180Z,32.92
2022-12-15T13:54:12.873Z,49.45
2022-12-15T13:57:05.294Z,51.58
2022-12-15T13:59:53.720Z,49.40
2022-12-15T14:02:47.931Z,45.28
2022-12-15T14:05:18.830Z,56.45
2022-12-15T14:10:41.976Z,60.08
2022-12-15T14:13:21.737Z,38.72
2022-12-15T14:15:55.078Z,34.97
2022-12-15T14:18:42.592Z,31.98
2022-12-15T14:21:30.524Z,18.85
2022-12-15T14:24:28.893Z,33.53
2022-12-15T14:26:46.685Z,29.13
2022-12-15T14:29:18.866Z,24.08
2022-12-15T14:31:48.494Z,18.55
2022-12-15T14:34:33.648Z,34.55
2022-12-15T14:37:07.811Z,25.83
2022-12-15T14:39:46.169Z,27.80
2022-12-15T14:42:24.729Z,36.45
2022-12-15T14:44:57.445Z,35.78
2022-12-15T14:50:48.239Z,74.28
2022-12-15T14:53:19.215Z,72.85
2022-12-15T14:55:47.286Z,62.72
2022-12-15T14:58:35.689Z,65.70
2022-12-15T15:03:09.975Z,46.00
2022-12-15T15:03:15.930Z,55.13
2022-12-15T15:03:39.805Z,54.05
2022-12-15T15:06:15.929Z,86.90
2022-12-15T15:08:46.766Z,63.92
2022-12-15T15:11:34.122Z,56.08
2022-12-15T15:14:04.552Z,36.58
2022-12-15T15:16:32.979Z,36.25
2022-12-15T15:19:04.599Z,38.70
2022-12-15T15:21:40.233Z,53.75
2022-12-15T15:24:10.973Z,39.58
2022-12-15T15:26:39.057Z,25.67
2022-12-15T15:29:38.567Z,36.70
2022-12-15T15:32:20.280Z,44.72
2022-12-15T15:34:49.672Z,35.50
2022-12-15T15:37:25.701Z,31.95
2022-12-15T15:39:59.746Z,29.85
2022-12-15T15:42:32.469Z,25.30
2022-12-15T15:45:01.422Z,23.27
2022-12-15T15:47:29.634Z,20.40
2022-12-15T15:50:00.335Z,31.88
2022-12-15T15:52:32.147Z,28.38
2022-12-15T15:55:04.714Z,23.83
2022-12-15T15:57:32.775Z,42.55
2022-12-15T16:00:03.467Z,23.05
2022-12-15T16:02:31.716Z,28.05
2022-12-15T16:05:04.320Z,26.00
2022-12-15T16:07:32.232Z,25.17
2022-12-15T16:10:01.113Z,22.88
2022-12-15T16:12:40.272Z,25.60
2022-12-15T16:15:28.311Z,29.63
2022-12-15T16:17:56.958Z,19.52
2022-12-15T16:20:28.105Z,34.70
2022-12-15T16:23:06.152Z,20.05
2022-12-15T16:25:56.610Z,20.45
2022-12-15T16:28:28.280Z,19.40
2022-12-15T16:30:56.392Z,12.55
2022-12-15T16:33:25.166Z,10.50
2022-12-15T16:35:53.432Z,13.07
2022-12-15T16:38:24.651Z,21.90
2022-12-15T16:40:55.322Z,29.85
2022-12-15T16:43:28.892Z,13.23
2022-12-15T16:46:01.381Z,15.68
2022-12-15T16:48:30.055Z,12.95
2022-12-15T16:51:00.185Z,12.77
2022-12-15T16:53:35.026Z,13.95
2022-12-15T16:56:08.619Z,13.23
2022-12-15T16:58:36.836Z,18.48
2022-12-15T17:01:04.767Z,14.18
2022-12-15T17:03:32.852Z,9.88
2022-12-15T17:06:02.805Z,8.57
2022-12-15T17:08:42.155Z,10.82
2022-12-15T17:11:28.363Z,15.50
2022-12-15T17:14:00.928Z,11.77
2022-12-15T17:16:30.249Z,10.70
2022-12-15T17:18:58.835Z,10.60
2022-12-15T17:21:35.425Z,11.38
2022-12-15T17:24:07.866Z,10.52
2022-12-15T17:26:37.377Z,11.88
2022-12-15T17:29:14.802Z,9.98
2022-12-15T17:31:42.721Z,8.55
2022-12-15T17:34:20.244Z,6.85
2022-12-15T17:36:48.118Z,8.73
2022-12-15T17:39:18.468Z,8.15
2022-12-15T17:42:02.555Z,8.10
2022-12-15T17:44:36.911Z,10.73
2022-12-15T17:47:06.789Z,9.05
2022-12-15T17:49:37.263Z,9.63
2022-12-15T17:52:25.168Z,9.13
2022-12-15T17:54:53.475Z,13.32
2022-12-15T17:57:21.260Z,8.18
2022-12-15T17:59:49.107Z,8.68
2022-12-15T18:02:17.481Z,12.15
2022-12-15T18:04:45.510Z,8.95
2022-12-15T18:07:22.608Z,15.65
2022-12-15T18:09:52.233Z,12.18
2022-12-15T18:12:26.966Z,9.82
2022-12-15T18:14:55.165Z,9.68
2022-12-15T18:17:23.845Z,19.73
2022-12-15T18:19:51.650Z,10.57
2022-12-15T18:22:22.619Z,11.77
2022-12-15T18:24:53.518Z,9.98
2022-12-15T18:27:25.881Z,9.15
2022-12-15T18:29:53.973Z,9.68
2022-12-15T18:32:24.589Z,13.93
2022-12-15T18:34:53.581Z,8.10
2022-12-15T18:37:23.047Z,45.83
2022-12-15T18:39:51.069Z,59.63
2022-12-15T18:42:21.286Z,49.50
2022-12-15T18:47:18.516Z,41.30
2022-12-15T18:49:46.812Z,43.25
2022-12-15T18:52:17.724Z,57.20
2022-12-15T18:54:45.594Z,57.13
2022-12-15T18:57:35.962Z,73.38
2022-12-15T19:00:34.526Z,71.38
2022-12-15T19:03:02.766Z,92.22
2022-12-15T19:05:32.805Z,79.40
2022-12-15T19:08:02.299Z,82.00
2022-12-15T19:10:33.424Z,87.10
2022-12-15T19:13:01.604Z,97.20
2022-12-15T19:15:29.249Z,118.35
2022-12-15T19:18:17.126Z,123.55
2022-12-15T19:21:03.459Z,145.68
2022-12-15T19:23:31.544Z,122.38
2022-12-15T19:25:59.593Z,93.32
2022-12-15T19:28:27.405Z,84.70
2022-12-15T19:30:55.221Z,87.50
2022-12-15T19:33:23.042Z,84.60
2022-12-15T19:35:51.996Z,90.57
2022-12-15T19:38:29.466Z,100.57
2022-12-15T19:40:57.374Z,97.20
2022-12-15T19:43:25.556Z,102.43
2022-12-15T19:45:53.983Z,96.10
2022-12-15T19:48:24.063Z,103.30
2022-12-15T19:50:52.521Z,126.43
2022-12-15T19:53:27.242Z,143.63
2022-12-15T19:55:55.998Z,132.25
2022-12-15T19:58:29.029Z,112.97
2022-12-15T20:01:03.281Z,96.03
2022-12-15T20:03:31.564Z,87.13
2022-12-15T20:06:00.264Z,84.50
2022-12-15T20:08:29.379Z,85.82
2022-12-15T20:10:57.815Z,70.97
2022-12-15T20:13:26.585Z,81.57
2022-12-15T20:15:56.254Z,86.60
2022-12-15T20:18:24.641Z,107.35
2022-12-15T20:20:52.466Z,89.05
2022-12-15T20:23:26.359Z,105.38
2022-12-15T20:25:54.609Z,121.10
2022-12-15T20:28:27.880Z,131.98
2022-12-15T20:30:57.071Z,140.23
2022-12-15T20:33:25.240Z,127.43
2022-12-15T20:35:53.006Z,87.13
2022-12-15T20:38:41.718Z,97.63
2022-12-15T20:41:19.870Z,105.85
2022-12-15T20:43:47.797Z,116.93
2022-12-15T20:46:25.544Z,103.15
2022-12-15T20:48:55.122Z,118.25
2022-12-15T20:51:29.013Z,108.25
2022-12-15T20:53:57.697Z,127.30
2022-12-15T20:56:25.717Z,129.70
2022-12-15T20:58:54.111Z,133.38
2022-12-15T21:01:28.532Z,116.60
2022-12-15T21:03:57.792Z,124.50
2022-12-15T21:06:26.653Z,6.72
2022-12-15T21:08:54.636Z,4.35
2022-12-15T21:11:27.497Z,5.47
2022-12-15T21:14:04.215Z,5.07
2022-12-15T21:16:33.286Z,7.95
2022-12-15T21:19:20.881Z,7.60
2022-12-15T21:21:55.005Z,23.52
2022-12-15T21:24:27.185Z,36.10
2022-12-15T21:26:55.163Z,31.23
2022-12-15T21:29:25.312Z,37.85
2022-12-15T21:31:53.141Z,65.88
2022-12-15T21:34:21.015Z,65.85
2022-12-15T21:36:52.152Z,83.63
2022-12-15T21:39:33.155Z,84.20
2022-12-15T21:42:05.731Z,50.08
2022-12-15T21:44:33.646Z,54.58
2022-12-15T21:47:01.820Z,76.68
2022-12-15T21:49:29.542Z,80.07
2022-12-15T21:52:01.647Z,84.35
2022-12-15T21:54:35.290Z,117.05
2022-12-15T21:57:03.127Z,108.18
2022-12-15T21:59:33.083Z,128.30
2022-12-15T22:02:01.509Z,134.68
2022-12-15T22:04:35.997Z,108.30
2022-12-15T22:07:03.736Z,124.38
2022-12-15T22:09:31.610Z,99.25
2022-12-15T22:11:59.633Z,6.63
2022-12-15T22:14:34.802Z,3.72
2022-12-15T22:17:16.616Z,4.32
2022-12-15T22:19:45.055Z,6.60
2022-12-15T22:22:14.012Z,3.25
2022-12-15T22:24:41.888Z,5.53
2022-12-15T22:27:35.907Z,4.72
2022-12-15T22:30:04.491Z,9.02
2022-12-15T22:32:32.813Z,5.60
2022-12-15T22:35:00.689Z,6.15
2022-12-15T22:37:28.457Z,6.32
2022-12-15T22:39:56.215Z,5.82
2022-12-15T22:42:23.932Z,4.55
2022-12-15T22:44:51.800Z,6.88
2022-12-15T22:47:19.605Z,6.55
2022-12-15T22:49:47.428Z,3.60
2022-12-15T22:52:19.512Z,6.30
2022-12-15T22:54:47.900Z,4.93
2022-12-15T22:57:27.150Z,4.35
2022-12-15T23:00:13.244Z,13.18
2022-12-15T23:02:44.996Z,5.65
2022-12-15T23:05:15.779Z,8.57
2022-12-15T23:07:43.951Z,3.97
2022-12-15T23:10:33.380Z,24.85
2022-12-15T23:13:01.252Z,12.90
2022-12-15T23:15:48.690Z,7.78
2022-12-15T23:18:17.017Z,4.65
2022-12-15T23:20:45.545Z,4.05
2022-12-15T23:23:13.396Z,23.15
2022-12-15T23:25:41.198Z,17.92
2022-12-15T23:28:09.089Z,28.88
2022-12-15T23:30:36.947Z,39.97
2022-12-15T23:33:04.906Z,56.58
2022-12-15T23:35:32.619Z,54.85
2022-12-15T23:38:00.685Z,46.22
2022-12-15T23:40:28.446Z,47.22
2022-12-15T23:42:56.309Z,40.25
2022-12-15T23:45:24.120Z,18.38
2022-12-15T23:47:52.251Z,14.10
2022-12-15T23:50:22.014Z,29.27
2022-12-15T23:52:51.863Z,24.02
2022-12-15T23:55:20.352Z,33.70
2022-12-15T23:57:48.218Z,35.45
